createdAt,value
2022-09-05T00:00:47.899Z,8.80
2022-09-05T00:01:47.901Z,8.60
2022-09-05T00:02:49.127Z,8.70
2022-09-05T00:03:48.012Z,8.50
2022-09-05T00:04:47.907Z,8.70
2022-09-05T00:06:00.149Z,8.60
2022-09-05T00:06:47.910Z,8.40
2022-09-05T00:08:00.019Z,8.80
2022-09-05T00:08:47.907Z,8.70
2022-09-05T00:09:47.909Z,8.80
2022-09-05T00:11:39.441Z,8.80
2022-09-05T00:11:47.912Z,8.80
2022-09-05T00:12:47.910Z,9.10
2022-09-05T00:13:47.912Z,8.70
2022-09-05T00:15:15.345Z,9.20
2022-09-05T00:15:47.950Z,9.40
2022-09-05T00:16:47.917Z,8.50
2022-09-05T00:19:34.097Z,8.90
2022-09-05T00:22:27.404Z,9.00
2022-09-05T00:24:19.253Z,8.80
2022-09-05T00:24:21.445Z,8.90
2022-09-05T00:24:29.483Z,8.90
2022-09-05T00:24:35.669Z,9.00
2022-09-05T00:24:42.327Z,8.60
2022-09-05T00:25:00.794Z,8.90
2022-09-05T00:25:47.917Z,9.10
2022-09-05T00:26:50.457Z,8.70
2022-09-05T00:27:47.921Z,8.90
2022-09-05T00:28:47.922Z,9.00
2022-09-05T00:31:50.547Z,9.10
2022-09-05T00:31:51.998Z,9.20
2022-09-05T00:31:54.379Z,9.20
2022-09-05T00:32:47.978Z,8.90
2022-09-05T00:33:47.925Z,9.20
2022-09-05T00:34:48.457Z,9.00
2022-09-05T00:35:47.929Z,9.00
2022-09-05T00:36:47.934Z,9.00
2022-09-05T00:37:47.927Z,9.20
2022-09-05T00:38:47.933Z,9.40
2022-09-05T00:39:55.294Z,9.30
2022-09-05T00:40:47.932Z,9.20
2022-09-05T00:41:47.933Z,9.10
2022-09-05T00:42:47.932Z,9.00
2022-09-05T00:43:47.931Z,8.80
2022-09-05T00:44:47.940Z,9.10
2022-09-05T00:45:47.934Z,9.10
2022-09-05T00:46:47.962Z,9.20
2022-09-05T00:47:48.396Z,9.10
2022-09-05T00:48:47.939Z,9.50
2022-09-05T00:49:47.938Z,9.30
2022-09-05T00:50:47.943Z,9.40
2022-09-05T00:51:47.940Z,9.30
2022-09-05T00:52:51.735Z,9.40
2022-09-05T00:53:47.942Z,9.30
2022-09-05T00:54:47.943Z,9.10
2022-09-05T00:55:47.948Z,9.20
2022-09-05T00:56:47.946Z,9.50
2022-09-05T00:57:47.946Z,9.20
2022-09-05T00:58:47.946Z,9.30
2022-09-05T00:59:58.592Z,9.40
2022-09-05T01:00:47.946Z,9.30
2022-09-05T01:01:48.116Z,9.10
2022-09-05T01:02:51.788Z,9.10
2022-09-05T01:03:47.947Z,9.00
2022-09-05T01:04:47.949Z,8.80
2022-09-05T01:05:47.948Z,9.00
2022-09-05T01:06:47.951Z,8.70
2022-09-05T01:07:47.951Z,9.00
2022-09-05T01:08:47.956Z,9.10
2022-09-05T01:09:47.957Z,9.20
2022-09-05T01:10:47.951Z,9.10
2022-09-05T01:11:47.951Z,9.00
2022-09-05T01:12:48.553Z,8.90
2022-09-05T01:13:47.955Z,8.90
2022-09-05T01:14:47.957Z,8.60
2022-09-05T01:15:48.006Z,8.80
2022-09-05T01:16:47.961Z,8.80
2022-09-05T01:17:48.424Z,8.80
2022-09-05T01:18:47.959Z,9.10
2022-09-05T01:19:47.961Z,8.80
2022-09-05T01:20:47.956Z,8.90
2022-09-05T01:21:48.217Z,8.70
2022-09-05T01:22:47.965Z,8.60
2022-09-05T01:23:47.961Z,8.40
2022-09-05T01:24:47.962Z,8.70
2022-09-05T01:25:55.015Z,8.60
2022-09-05T01:26:47.972Z,8.70
2022-09-05T01:29:01.321Z,8.60
2022-09-05T01:29:16.557Z,8.90
2022-09-05T01:29:47.964Z,8.50
2022-09-05T01:30:48.041Z,8.70
2022-09-05T01:31:47.969Z,8.70
2022-09-05T01:32:47.964Z,8.40
2022-09-05T01:33:47.967Z,8.30
2022-09-05T01:34:47.969Z,8.30
2022-09-05T01:36:03.818Z,8.30
2022-09-05T01:36:47.971Z,8.50
2022-09-05T01:37:47.990Z,8.60
2022-09-05T01:39:11.194Z,8.30
2022-09-05T01:40:15.178Z,8.30
2022-09-05T01:40:53.641Z,8.10
2022-09-05T01:41:47.973Z,8.30
2022-09-05T01:42:47.974Z,8.30
2022-09-05T01:43:47.978Z,8.40
2022-09-05T01:44:47.970Z,8.40
2022-09-05T01:45:47.979Z,8.60
2022-09-05T01:46:47.975Z,8.40
2022-09-05T01:47:47.977Z,8.50
2022-09-05T01:48:48.047Z,8.60
2022-09-05T01:49:47.979Z,8.40
2022-09-05T01:50:47.981Z,8.40
2022-09-05T01:51:47.978Z,8.40
2022-09-05T01:52:58.963Z,8.50
2022-09-05T01:53:47.985Z,8.40
2022-09-05T01:54:47.984Z,8.40
2022-09-05T01:56:04.612Z,7.90
2022-09-05T01:56:47.985Z,8.10
2022-09-05T01:57:47.987Z,8.50
2022-09-05T01:58:47.984Z,8.50
2022-09-05T01:59:47.982Z,8.40
2022-09-05T02:00:47.985Z,8.50
2022-09-05T02:01:48.105Z,8.60
2022-09-05T02:02:50.508Z,8.50
2022-09-05T02:03:47.986Z,8.30
2022-09-05T02:04:47.988Z,8.60
2022-09-05T02:05:49.684Z,8.60
2022-09-05T02:06:47.987Z,8.60
2022-09-05T02:07:47.986Z,8.60
2022-09-05T02:08:47.986Z,8.70
2022-09-05T02:09:47.989Z,8.90
2022-09-05T02:10:47.991Z,8.80
2022-09-05T02:11:47.998Z,9.00
2022-09-05T02:12:56.699Z,8.70
2022-09-05T02:13:47.993Z,8.70
2022-09-05T02:14:47.993Z,8.60
2022-09-05T02:15:59.077Z,8.80
2022-09-05T02:16:47.993Z,8.90
2022-09-05T02:17:51.007Z,8.60
2022-09-05T02:18:47.993Z,8.50
2022-09-05T02:19:47.996Z,8.50
2022-09-05T02:20:47.994Z,8.80
2022-09-05T02:21:56.838Z,8.70
2022-09-05T02:22:47.998Z,8.50
2022-09-05T02:23:48.206Z,8.70
2022-09-05T02:24:47.997Z,8.30
2022-09-05T02:26:01.660Z,8.30
2022-09-05T02:26:47.997Z,8.40
2022-09-05T02:28:04.807Z,8.30
2022-09-05T02:28:47.999Z,8.20
2022-09-05T02:29:48.001Z,8.30
2022-09-05T02:31:11.562Z,8.50
2022-09-05T02:31:48.053Z,8.30
2022-09-05T02:32:48.004Z,8.40
2022-09-05T02:33:48.001Z,8.20
2022-09-05T02:34:48.006Z,8.40
2022-09-05T02:35:48.007Z,8.20
2022-09-05T02:36:48.000Z,8.10
2022-09-05T02:40:07.813Z,7.90
2022-09-05T02:41:57.210Z,8.40
2022-09-05T02:45:09.015Z,8.20
2022-09-05T02:45:12.207Z,8.60
2022-09-05T02:45:13.054Z,8.50
2022-09-05T02:45:16.851Z,8.60
2022-09-05T02:45:18.370Z,8.30
2022-09-05T02:45:19.183Z,8.80
2022-09-05T02:45:48.139Z,8.50
2022-09-05T02:46:48.153Z,8.20
2022-09-05T02:47:48.009Z,7.90
2022-09-05T02:48:48.012Z,8.30
2022-09-05T02:51:01.233Z,8.10
2022-09-05T02:53:59.202Z,7.90
2022-09-05T02:57:24.565Z,8.10
2022-09-05T02:57:25.901Z,8.20
2022-09-05T02:57:33.266Z,7.80
2022-09-05T02:57:41.590Z,8.30
2022-09-05T02:57:42.315Z,8.10
2022-09-05T02:58:04.931Z,8.30
2022-09-05T02:58:05.752Z,8.20
2022-09-05T02:59:08.586Z,8.30
2022-09-05T02:59:48.022Z,8.20
2022-09-05T03:00:48.028Z,8.60
2022-09-05T03:01:48.089Z,8.50
2022-09-05T03:02:48.047Z,8.10
2022-09-05T03:03:48.025Z,8.40
2022-09-05T03:04:48.014Z,8.50
2022-09-05T03:05:48.017Z,8.30
2022-09-05T03:06:48.018Z,8.40
2022-09-05T03:07:48.018Z,8.40
2022-09-05T03:08:48.019Z,8.50
2022-09-05T03:09:48.019Z,8.50
2022-09-05T03:10:54.094Z,8.50
2022-09-05T03:11:48.022Z,8.40
2022-09-05T03:12:48.024Z,8.20
2022-09-05T03:13:54.034Z,8.50
2022-09-05T03:14:48.024Z,8.10
2022-09-05T03:15:48.022Z,8.10
2022-09-05T03:16:48.067Z,8.30
2022-09-05T03:17:48.026Z,8.00
2022-09-05T03:18:48.023Z,8.50
2022-09-05T03:19:48.030Z,8.70
2022-09-05T03:20:48.034Z,8.60
2022-09-05T03:21:48.034Z,8.50
2022-09-05T03:22:48.024Z,8.50
2022-09-05T03:23:48.029Z,8.50
2022-09-05T03:24:55.640Z,8.40
2022-09-05T03:25:48.031Z,8.40
2022-09-05T03:26:48.030Z,8.20
2022-09-05T03:27:48.026Z,8.20
2022-09-05T03:28:48.027Z,8.30
2022-09-05T03:29:48.036Z,8.40
2022-09-05T03:30:48.108Z,8.50
2022-09-05T03:31:48.031Z,8.00
2022-09-05T03:32:48.027Z,8.30
2022-09-05T03:33:48.034Z,8.20
2022-09-05T03:34:48.032Z,7.60
2022-09-05T03:35:48.036Z,8.40
2022-09-05T03:36:48.028Z,8.40
2022-09-05T03:37:48.038Z,8.50
2022-09-05T03:38:48.033Z,8.60
2022-09-05T03:39:48.065Z,8.50
2022-09-05T03:40:48.035Z,9.00
2022-09-05T03:41:48.033Z,8.20
2022-09-05T03:43:23.508Z,8.90
2022-09-05T03:44:23.506Z,8.80
2022-09-05T03:45:36.737Z,8.80
2022-09-05T03:46:23.553Z,8.80
2022-09-05T03:47:23.508Z,8.90
2022-09-05T03:48:28.345Z,8.60
2022-09-05T03:51:41.817Z,8.70
2022-09-05T03:54:17.125Z,9.10
2022-09-05T03:57:06.538Z,9.00
2022-09-05T03:57:08.731Z,9.00
2022-09-05T03:57:13.118Z,8.70
2022-09-05T03:57:15.205Z,8.80
2022-09-05T03:57:19.055Z,8.60
2022-09-05T03:57:24.260Z,8.90
2022-09-05T03:57:41.901Z,8.90
2022-09-05T03:58:41.936Z,8.60
2022-09-05T03:59:23.527Z,8.70
2022-09-05T04:00:23.511Z,8.80
2022-09-05T04:02:10.240Z,8.60
2022-09-05T04:08:05.765Z,8.40
2022-09-05T04:08:09.333Z,8.90
2022-09-05T04:08:11.269Z,9.00
2022-09-05T04:08:14.989Z,8.50
2022-09-05T04:08:19.556Z,8.60
2022-09-05T04:08:24.161Z,8.30
2022-09-05T04:08:38.944Z,8.10
2022-09-05T04:09:49.011Z,8.30
2022-09-05T04:10:23.623Z,8.30
2022-09-05T04:11:23.513Z,8.50
2022-09-05T04:12:23.523Z,8.50
2022-09-05T04:13:23.840Z,8.40
2022-09-05T04:14:23.519Z,8.10
2022-09-05T04:15:23.518Z,8.30
2022-09-05T04:16:23.620Z,8.30
2022-09-05T04:17:23.519Z,8.40
2022-09-05T04:18:33.390Z,8.30
2022-09-05T04:19:23.521Z,8.40
2022-09-05T04:20:23.519Z,8.10
2022-09-05T04:21:23.523Z,8.40
2022-09-05T04:22:23.523Z,8.30
2022-09-05T04:23:23.626Z,7.90
2022-09-05T04:24:23.527Z,8.20
2022-09-05T04:25:23.525Z,8.10
2022-09-05T04:26:23.523Z,8.20
2022-09-05T04:27:27.814Z,7.90
2022-09-05T04:28:23.561Z,7.50
2022-09-05T04:29:23.528Z,7.80
2022-09-05T04:30:38.530Z,7.90
2022-09-05T04:31:23.561Z,8.00
2022-09-05T04:32:23.567Z,7.60
2022-09-05T04:33:36.186Z,7.20
2022-09-05T04:34:23.534Z,7.70
2022-09-05T04:35:23.524Z,7.60
2022-09-05T04:36:23.531Z,7.80
2022-09-05T04:37:23.526Z,8.00
2022-09-05T04:38:23.531Z,8.10
2022-09-05T04:39:23.572Z,7.90
2022-09-05T04:40:23.530Z,8.30
2022-09-05T04:41:39.178Z,7.80
2022-09-05T04:42:23.529Z,8.10
2022-09-05T04:43:23.528Z,8.10
2022-09-05T04:44:23.533Z,8.10
2022-09-05T04:45:24.296Z,7.70
2022-09-05T04:46:23.573Z,8.10
2022-09-05T04:47:23.529Z,7.70
2022-09-05T04:48:23.662Z,8.00
2022-09-05T04:49:24.465Z,7.60
2022-09-05T04:50:24.084Z,8.10
2022-09-05T04:51:23.536Z,8.00
2022-09-05T04:52:30.914Z,7.50
2022-09-05T04:53:23.537Z,7.50
2022-09-05T04:54:23.532Z,7.80
2022-09-05T04:55:23.530Z,8.20
2022-09-05T04:56:23.533Z,8.20
2022-09-05T04:57:23.530Z,8.20
2022-09-05T04:58:24.178Z,8.00
2022-09-05T05:01:00.395Z,8.20
2022-09-05T05:06:00.371Z,7.90
2022-09-05T05:06:00.811Z,8.40
2022-09-05T05:06:05.739Z,8.10
2022-09-05T05:06:08.226Z,7.90
2022-09-05T05:06:10.661Z,7.70
2022-09-05T05:06:10.666Z,7.80
2022-09-05T05:06:46.002Z,7.80
2022-09-05T05:07:23.637Z,7.60
2022-09-05T05:08:23.709Z,7.90
2022-09-05T05:09:23.535Z,7.80
2022-09-05T05:14:07.698Z,7.90
2022-09-05T05:17:55.284Z,8.00
2022-09-05T05:17:56.599Z,7.70
2022-09-05T05:17:57.987Z,7.90
2022-09-05T05:18:02.535Z,7.50
2022-09-05T05:18:07.040Z,7.50
2022-09-05T05:18:12.193Z,7.30
2022-09-05T05:18:13.109Z,7.30
2022-09-05T05:18:39.797Z,7.30
2022-09-05T05:19:23.727Z,7.40
2022-09-05T05:20:42.703Z,7.60
2022-09-05T05:21:23.539Z,7.70
2022-09-05T05:22:23.543Z,9.40
2022-09-05T05:23:23.542Z,8.10
2022-09-05T05:24:23.545Z,7.50
2022-09-05T05:25:23.547Z,7.80
2022-09-05T05:26:23.543Z,7.70
2022-09-05T05:27:23.555Z,7.60
2022-09-05T05:28:24.764Z,7.50
2022-09-05T05:29:23.545Z,7.40
2022-09-05T05:30:23.550Z,7.60
2022-09-05T05:31:23.636Z,7.30
2022-09-05T05:32:31.628Z,7.40
2022-09-05T05:33:23.545Z,7.40
2022-09-05T05:34:24.793Z,8.50
2022-09-05T05:35:23.548Z,7.60
2022-09-05T05:36:23.549Z,7.40
2022-09-05T05:37:23.551Z,7.80
2022-09-05T05:38:23.612Z,7.60
2022-09-05T05:39:23.621Z,7.30
2022-09-05T05:40:23.550Z,7.90
2022-09-05T05:41:23.550Z,7.80
2022-09-05T05:42:23.552Z,7.80
2022-09-05T05:43:23.552Z,7.80
2022-09-05T05:44:23.559Z,7.70
2022-09-05T05:45:23.552Z,7.80
2022-09-05T05:46:23.642Z,7.60
2022-09-05T05:47:28.409Z,7.70
2022-09-05T05:48:23.579Z,7.70
2022-09-05T05:49:23.553Z,7.60
2022-09-05T05:50:23.555Z,7.80
2022-09-05T05:51:34.766Z,7.40
2022-09-05T05:52:23.559Z,7.60
2022-09-05T05:53:33.473Z,7.50
2022-09-05T05:54:23.558Z,7.20
2022-09-05T05:55:51.374Z,7.60
2022-09-05T05:56:23.558Z,7.60
2022-09-05T05:57:23.553Z,7.60
2022-09-05T05:58:23.614Z,7.70
2022-09-05T05:59:24.884Z,7.40
2022-09-05T06:00:27.952Z,7.70
2022-09-05T06:01:32.956Z,7.60
2022-09-05T06:02:23.678Z,7.70
2022-09-05T06:03:26.614Z,7.50
2022-09-05T06:04:23.557Z,7.50
2022-09-05T06:05:23.562Z,7.20
2022-09-05T06:06:23.561Z,7.30
2022-09-05T06:07:23.568Z,7.50
2022-09-05T06:10:19.729Z,7.40
2022-09-05T06:14:37.558Z,7.20
2022-09-05T06:14:49.554Z,7.10
2022-09-05T06:14:57.249Z,7.50
2022-09-05T06:14:57.250Z,7.40
2022-09-05T06:15:01.460Z,7.20
2022-09-05T06:15:09.076Z,7.00
2022-09-05T06:15:24.586Z,7.20
2022-09-05T06:16:23.627Z,7.40
2022-09-05T06:17:28.295Z,7.00
2022-09-05T06:18:23.566Z,7.30
2022-09-05T06:19:23.568Z,7.30
2022-09-05T06:22:04.793Z,7.30
2022-09-05T06:22:09.577Z,7.60
2022-09-05T06:22:23.574Z,7.10
2022-09-05T06:23:39.411Z,7.60
2022-09-05T06:24:23.573Z,7.70
2022-09-05T06:25:23.569Z,7.50
2022-09-05T06:26:23.574Z,7.60
2022-09-05T06:27:23.574Z,7.50
2022-09-05T06:28:23.570Z,7.60
2022-09-05T06:29:23.577Z,7.60
2022-09-05T06:30:23.573Z,7.50
2022-09-05T06:31:31.492Z,7.40
2022-09-05T06:32:23.572Z,7.60
2022-09-05T06:33:23.617Z,7.50
2022-09-05T06:34:33.089Z,7.50
2022-09-05T06:35:23.574Z,7.60
2022-09-05T06:36:23.579Z,7.90
2022-09-05T06:37:23.576Z,7.90
2022-09-05T06:38:23.577Z,7.60
2022-09-05T06:39:23.631Z,7.90
2022-09-05T06:40:23.573Z,7.60
2022-09-05T06:41:23.585Z,7.90
2022-09-05T06:42:28.505Z,7.60
2022-09-05T06:43:23.644Z,8.00
2022-09-05T06:44:23.886Z,8.00
2022-09-05T06:45:28.152Z,8.30
2022-09-05T06:46:52.884Z,8.00
2022-09-05T06:47:33.694Z,7.90
2022-09-05T06:48:32.109Z,7.80
2022-09-05T06:49:30.322Z,7.80
2022-09-05T06:50:24.351Z,8.20
2022-09-05T06:51:23.584Z,8.20
2022-09-05T06:52:29.027Z,8.30
2022-09-05T06:53:23.602Z,7.90
2022-09-05T06:54:23.586Z,8.00
2022-09-05T06:55:23.584Z,8.30
2022-09-05T06:56:25.983Z,8.40
2022-09-05T06:57:23.591Z,8.10
2022-09-05T06:58:23.592Z,8.10
2022-09-05T06:59:23.590Z,8.40
2022-09-05T07:00:23.602Z,8.30
2022-09-05T07:01:23.732Z,8.10
2022-09-05T07:02:46.371Z,7.90
2022-09-05T07:03:23.922Z,7.80
2022-09-05T07:05:14.831Z,7.60
2022-09-05T07:05:38.793Z,7.70
2022-09-05T07:06:23.604Z,8.00
2022-09-05T07:07:23.626Z,8.00
2022-09-05T07:08:36.593Z,8.00
2022-09-05T07:09:23.603Z,8.30
2022-09-05T07:10:38.018Z,8.30
2022-09-05T07:11:23.604Z,8.00
2022-09-05T07:12:23.610Z,8.10
2022-09-05T07:13:23.618Z,8.00
2022-09-05T07:14:23.610Z,7.50
2022-09-05T07:15:23.610Z,7.90
2022-09-05T07:16:37.231Z,8.60
2022-09-05T07:17:23.616Z,7.90
2022-09-05T07:18:23.617Z,7.90
2022-09-05T07:19:23.624Z,7.70
2022-09-05T07:20:23.731Z,8.20
2022-09-05T07:21:26.800Z,8.10
2022-09-05T07:22:47.134Z,7.70
2022-09-05T07:24:07.215Z,7.80
2022-09-05T07:24:31.292Z,7.70
2022-09-05T07:25:26.151Z,8.10
2022-09-05T07:26:52.046Z,7.40
2022-09-05T07:27:25.498Z,8.20
2022-09-05T07:28:29.705Z,7.70
2022-09-05T07:29:23.635Z,8.30
2022-09-05T07:30:23.637Z,7.90
2022-09-05T07:31:27.444Z,7.80
2022-09-05T07:32:24.615Z,8.10
2022-09-05T07:33:23.724Z,7.60
2022-09-05T07:34:23.644Z,7.70
2022-09-05T07:35:23.646Z,7.60
2022-09-05T07:36:24.545Z,7.70
2022-09-05T07:37:23.650Z,7.90
2022-09-05T07:38:26.702Z,7.80
2022-09-05T07:39:29.100Z,7.70
2022-09-05T07:40:26.034Z,8.30
2022-09-05T07:41:23.662Z,7.80
2022-09-05T07:42:23.673Z,7.70
2022-09-05T07:43:23.683Z,8.20
2022-09-05T07:44:23.671Z,8.10
2022-09-05T07:45:23.696Z,8.10
2022-09-05T07:46:23.674Z,7.80
2022-09-05T07:47:23.672Z,7.90
2022-09-05T07:48:34.622Z,7.80
2022-09-05T07:49:23.683Z,7.90
2022-09-05T07:52:23.508Z,8.40
2022-09-05T07:56:46.654Z,7.80
2022-09-05T07:56:55.620Z,7.90
2022-09-05T07:57:02.368Z,8.30
2022-09-05T07:57:03.723Z,8.30
2022-09-05T07:57:09.949Z,8.10
2022-09-05T07:57:13.318Z,8.30
2022-09-05T07:57:30.955Z,8.10
2022-09-05T07:58:23.709Z,7.50
2022-09-05T07:59:23.709Z,8.40
2022-09-05T08:00:26.806Z,7.90
2022-09-05T08:01:23.760Z,8.60
2022-09-05T08:02:23.719Z,8.40
2022-09-05T08:03:23.871Z,8.40
2022-09-05T08:04:23.730Z,8.40
2022-09-05T08:05:32.928Z,8.10
2022-09-05T08:06:48.011Z,8.60
2022-09-05T08:07:46.737Z,8.40
2022-09-05T08:08:23.739Z,8.50
2022-09-05T08:10:06.741Z,8.50
2022-09-05T08:10:31.246Z,8.80
2022-09-05T08:11:26.287Z,8.50
2022-09-05T08:12:27.846Z,8.70
2022-09-05T08:13:27.296Z,8.60
2022-09-05T08:14:43.369Z,8.20
2022-09-05T08:15:23.830Z,8.60
2022-09-05T08:16:23.802Z,8.60
2022-09-05T08:17:26.459Z,8.20
2022-09-05T08:18:23.768Z,8.10
2022-09-05T08:19:23.772Z,8.30
2022-09-05T08:20:23.778Z,8.60
2022-09-05T08:21:27.080Z,8.70
2022-09-05T08:22:23.779Z,8.60
2022-09-05T08:23:23.888Z,8.70
2022-09-05T08:24:23.792Z,8.60
2022-09-05T08:25:23.795Z,8.90
2022-09-05T08:26:23.800Z,8.90
2022-09-05T08:27:23.798Z,8.80
2022-09-05T08:28:23.811Z,8.60
2022-09-05T08:29:23.806Z,8.40
2022-09-05T08:30:26.684Z,8.40
2022-09-05T08:31:23.838Z,8.10
2022-09-05T08:32:23.820Z,8.60
2022-09-05T08:33:23.821Z,8.40
2022-09-05T08:34:31.336Z,8.20
2022-09-05T08:35:23.829Z,8.40
2022-09-05T08:36:23.834Z,8.50
2022-09-05T08:37:23.839Z,8.40
2022-09-05T08:38:23.992Z,8.60
2022-09-05T08:39:23.927Z,8.40
2022-09-05T08:40:23.890Z,8.40
2022-09-05T08:41:36.909Z,7.90
2022-09-05T08:42:23.863Z,8.20
2022-09-05T08:44:43.164Z,8.60
2022-09-05T08:46:39.388Z,8.60
2022-09-05T08:46:41.095Z,8.40
2022-09-05T08:46:43.402Z,8.20
2022-09-05T08:47:23.940Z,8.20
2022-09-05T08:48:23.889Z,8.50
2022-09-05T08:49:32.405Z,8.40
2022-09-05T08:50:26.884Z,8.90
2022-09-05T08:51:23.910Z,9.10
2022-09-05T08:52:23.918Z,8.60
2022-09-05T08:53:26.318Z,9.10
2022-09-05T08:54:23.925Z,9.00
2022-09-05T08:55:23.934Z,9.10
2022-09-05T08:56:23.938Z,9.10
2022-09-05T08:57:23.951Z,8.80
2022-09-05T08:58:23.956Z,9.20
2022-09-05T08:59:27.741Z,8.90
2022-09-05T09:00:24.590Z,8.80
2022-09-05T09:01:24.011Z,8.80
2022-09-05T09:02:46.460Z,9.10
2022-09-05T09:03:25.797Z,8.80
2022-09-05T09:04:43.651Z,8.60
2022-09-05T09:05:24.001Z,8.30
2022-09-05T09:06:24.009Z,8.60
2022-09-05T09:07:50.647Z,8.70
2022-09-05T09:08:24.028Z,8.70
2022-09-05T09:09:24.036Z,8.80
2022-09-05T09:10:25.967Z,8.90
2022-09-05T09:11:24.054Z,8.50
2022-09-05T09:12:24.063Z,8.50
2022-09-05T09:13:24.184Z,9.10
2022-09-05T09:14:30.195Z,9.10
2022-09-05T09:15:24.086Z,9.10
2022-09-05T09:16:24.226Z,9.00
2022-09-05T09:17:24.114Z,9.20
2022-09-05T09:18:24.118Z,9.10
2022-09-05T09:19:29.146Z,9.30
2022-09-05T09:20:24.141Z,9.20
2022-09-05T09:21:24.149Z,9.10
2022-09-05T09:22:24.170Z,9.20
2022-09-05T09:23:28.888Z,9.30
2022-09-05T09:24:24.181Z,9.40
2022-09-05T09:25:26.536Z,9.20
2022-09-05T09:26:26.755Z,9.20
2022-09-05T09:27:53.969Z,9.20
2022-09-05T09:28:48.344Z,9.10
2022-09-05T09:29:24.241Z,9.20
2022-09-05T09:30:24.251Z,9.10
2022-09-05T09:31:24.293Z,9.10
2022-09-05T09:32:24.276Z,9.00
2022-09-05T09:33:27.335Z,9.30
2022-09-05T09:34:24.305Z,9.10
2022-09-05T09:35:24.316Z,9.00
2022-09-05T09:36:24.332Z,9.20
2022-09-05T09:37:46.606Z,8.90
2022-09-05T09:38:24.517Z,8.90
2022-09-05T09:39:39.586Z,8.70
2022-09-05T09:40:24.490Z,8.70
2022-09-05T09:41:24.407Z,8.70
2022-09-05T09:42:32.705Z,8.70
2022-09-05T09:43:24.430Z,8.80
2022-09-05T09:44:24.452Z,8.80
2022-09-05T09:45:28.744Z,8.80
2022-09-05T09:46:24.522Z,8.80
2022-09-05T09:47:24.500Z,9.00
2022-09-05T09:48:24.762Z,8.70
2022-09-05T09:49:24.528Z,9.00
2022-09-05T09:50:24.544Z,9.30
2022-09-05T09:51:24.558Z,9.10
2022-09-05T09:52:24.578Z,8.90
2022-09-05T09:53:24.595Z,9.10
2022-09-05T09:54:24.611Z,9.10
2022-09-05T09:55:24.622Z,9.00
2022-09-05T09:56:24.640Z,8.70
2022-09-05T09:57:24.659Z,9.00
2022-09-05T09:58:24.983Z,8.80
2022-09-05T09:59:24.690Z,8.90
2022-09-05T10:00:24.717Z,9.20
2022-09-05T10:01:35.594Z,9.10
2022-09-05T10:05:42.813Z,8.90
2022-09-05T10:07:38.199Z,9.20
2022-09-05T10:10:35.429Z,9.30
2022-09-05T10:10:39.226Z,9.20
2022-09-05T10:10:45.057Z,9.10
2022-09-05T10:10:47.753Z,9.00
2022-09-05T10:10:48.838Z,8.90
2022-09-05T10:10:52.850Z,9.00
2022-09-05T10:10:53.339Z,8.80
2022-09-05T10:11:50.048Z,9.00
2022-09-05T10:13:26.859Z,9.20
2022-09-05T10:14:49.057Z,9.30
2022-09-05T10:15:30.438Z,8.80
2022-09-05T10:16:25.072Z,8.70
2022-09-05T10:17:25.031Z,8.90
2022-09-05T10:18:25.046Z,9.00
2022-09-05T10:20:07.825Z,9.00
2022-09-05T10:20:29.344Z,9.20
2022-09-05T10:21:25.107Z,9.20
2022-09-05T10:22:40.592Z,9.10
2022-09-05T10:23:25.359Z,9.30
2022-09-05T10:24:25.176Z,9.30
2022-09-05T10:25:25.191Z,9.40
2022-09-05T10:26:25.213Z,9.30
2022-09-05T10:27:25.326Z,9.40
2022-09-05T10:28:25.251Z,9.40
2022-09-05T10:29:36.845Z,9.30
2022-09-05T10:31:36.068Z,9.20
2022-09-05T10:34:24.778Z,8.80
2022-09-05T10:35:04.671Z,9.20
2022-09-05T10:35:08.991Z,9.20
2022-09-05T10:35:17.073Z,9.50
2022-09-05T10:35:26.200Z,9.50
2022-09-05T10:36:25.436Z,9.30
2022-09-05T10:37:25.448Z,9.20
2022-09-05T10:38:25.464Z,9.40
2022-09-05T10:39:25.601Z,9.40
2022-09-05T10:40:25.504Z,9.60
2022-09-05T10:41:25.528Z,9.30
2022-09-05T10:42:25.553Z,9.10
2022-09-05T10:43:25.697Z,8.80
2022-09-05T10:44:25.595Z,9.00
2022-09-05T10:45:30.210Z,8.90
2022-09-05T10:46:49.772Z,8.90
2022-09-05T10:47:25.717Z,8.90
2022-09-05T10:48:25.693Z,8.80
2022-09-05T10:49:30.406Z,8.90
2022-09-05T10:50:25.734Z,8.80
2022-09-05T10:51:27.823Z,8.60
2022-09-05T10:52:25.783Z,8.80
2022-09-05T10:53:25.919Z,8.80
2022-09-05T10:54:25.828Z,8.70
2022-09-05T10:55:25.849Z,8.40
2022-09-05T10:56:26.071Z,8.70
2022-09-05T10:57:25.893Z,8.80
2022-09-05T10:58:35.262Z,8.80
2022-09-05T11:02:15.749Z,8.70
2022-09-05T11:02:21.458Z,8.50
2022-09-05T11:02:28.222Z,8.90
2022-09-05T11:02:34.962Z,9.30
2022-09-05T11:03:26.193Z,9.40
2022-09-05T11:04:26.060Z,9.50
2022-09-05T11:05:26.135Z,9.40
2022-09-05T11:06:26.105Z,9.20
2022-09-05T11:07:29.660Z,9.60
2022-09-05T11:08:26.151Z,9.40
2022-09-05T11:09:26.179Z,9.30
2022-09-05T11:10:26.203Z,9.50
2022-09-05T11:11:34.299Z,9.50
2022-09-05T11:12:26.247Z,9.30
2022-09-05T11:13:26.422Z,9.40
2022-09-05T11:14:27.355Z,9.60
2022-09-05T11:15:26.321Z,9.30
2022-09-05T11:16:26.395Z,9.20
2022-09-05T11:17:26.368Z,9.70
2022-09-05T11:18:27.125Z,9.60
2022-09-05T11:19:26.415Z,9.40
2022-09-05T11:20:28.954Z,9.50
2022-09-05T11:21:26.466Z,9.80
2022-09-05T11:22:26.484Z,9.60
2022-09-05T11:23:26.700Z,9.60
2022-09-05T11:24:27.566Z,9.70
2022-09-05T11:25:40.686Z,9.60
2022-09-05T11:26:26.577Z,9.60
2022-09-05T11:27:26.605Z,9.70
2022-09-05T11:28:26.621Z,9.40
2022-09-05T11:29:26.651Z,9.10
2022-09-05T11:30:30.009Z,9.40
2022-09-05T11:31:26.725Z,9.30
2022-09-05T11:34:54.626Z,9.20
2022-09-05T11:39:45.604Z,9.30
2022-09-05T11:39:49.150Z,9.10
2022-09-05T11:39:55.600Z,9.70
2022-09-05T11:39:57.508Z,9.40
2022-09-05T11:40:01.995Z,9.10
2022-09-05T11:40:10.548Z,9.30
2022-09-05T11:40:23.878Z,9.40
2022-09-05T11:40:45.146Z,9.10
2022-09-05T11:41:27.968Z,9.30
2022-09-05T11:42:26.939Z,9.40
2022-09-05T11:43:26.965Z,9.70
2022-09-05T11:44:27.524Z,9.50
2022-09-05T11:45:27.010Z,9.40
2022-09-05T11:46:29.581Z,8.20
2022-09-05T11:47:33.212Z,8.20
2022-09-05T11:48:27.106Z,7.90
2022-09-05T11:49:27.089Z,8.30
2022-09-05T11:50:27.106Z,8.20
2022-09-05T11:51:33.419Z,8.40
2022-09-05T11:52:27.148Z,9.80
2022-09-05T11:53:27.169Z,9.90
2022-09-05T11:54:27.184Z,9.80
2022-09-05T11:55:27.205Z,9.70
2022-09-05T11:56:28.939Z,9.70
2022-09-05T11:57:33.771Z,9.60
2022-09-05T11:58:45.434Z,9.90
2022-09-05T11:59:33.431Z,10.00
2022-09-05T12:00:31.990Z,9.80
2022-09-05T12:01:41.227Z,10.10
2022-09-05T12:02:27.375Z,9.70
2022-09-05T12:03:57.134Z,9.60
2022-09-05T12:04:27.365Z,9.60
2022-09-05T12:05:49.690Z,9.70
2022-09-05T12:06:27.459Z,9.80
2022-09-05T12:07:31.851Z,9.50
2022-09-05T12:08:28.684Z,9.30
2022-09-05T12:09:27.454Z,9.50
2022-09-05T12:10:45.704Z,9.70
2022-09-05T12:11:27.483Z,10.10
2022-09-05T12:12:41.645Z,10.20
2022-09-05T12:13:29.193Z,10.40
2022-09-05T12:14:27.534Z,10.00
2022-09-05T12:15:27.548Z,9.60
2022-09-05T12:16:27.605Z,10.00
2022-09-05T12:17:35.474Z,9.40
2022-09-05T12:18:27.680Z,9.00
2022-09-05T12:19:27.606Z,9.50
2022-09-05T12:20:27.622Z,8.90
2022-09-05T12:21:27.630Z,9.00
2022-09-05T12:22:27.652Z,9.20
2022-09-05T12:23:39.934Z,9.20
2022-09-05T12:25:16.418Z,9.50
2022-09-05T12:27:36.849Z,9.50
2022-09-05T12:27:38.280Z,9.20
2022-09-05T12:27:40.298Z,8.80
2022-09-05T12:29:26.909Z,9.10
2022-09-05T12:29:36.366Z,9.20
2022-09-05T12:30:36.392Z,9.00
2022-09-05T12:33:22.949Z,8.90
2022-09-05T12:34:46.723Z,8.70
2022-09-05T12:36:01.927Z,9.10
2022-09-05T12:36:10.226Z,8.50
2022-09-05T12:39:29.037Z,9.40
2022-09-05T12:40:43.555Z,8.90
2022-09-05T12:41:34.233Z,9.10
2022-09-05T12:41:37.999Z,9.00
2022-09-05T12:41:43.450Z,9.00
2022-09-05T12:42:08.554Z,8.50
2022-09-05T12:42:10.809Z,8.80
2022-09-05T12:42:35.923Z,9.00
2022-09-05T12:44:34.701Z,9.10
2022-09-05T12:44:41.531Z,9.30
2022-09-05T12:45:37.046Z,9.30
2022-09-05T12:46:27.955Z,9.10
2022-09-05T12:47:27.964Z,9.20
2022-09-05T12:48:39.237Z,9.30
2022-09-05T12:49:35.298Z,9.50
2022-09-05T12:50:27.997Z,9.60
2022-09-05T12:51:45.223Z,9.20
2022-09-05T12:52:28.020Z,9.60
2022-09-05T12:53:28.029Z,9.40
2022-09-05T12:54:33.566Z,9.50
2022-09-05T12:55:28.059Z,9.40
2022-09-05T12:58:21.362Z,9.20
2022-09-05T13:02:57.343Z,9.70
2022-09-05T13:02:59.030Z,9.70
2022-09-05T13:03:04.083Z,9.80
2022-09-05T13:03:07.069Z,9.60
2022-09-05T13:03:08.221Z,9.60
2022-09-05T13:03:12.853Z,9.50
2022-09-05T13:03:29.735Z,9.50
2022-09-05T13:04:31.913Z,9.20
2022-09-05T13:05:28.337Z,9.10
2022-09-05T13:06:28.321Z,9.40
2022-09-05T13:07:28.168Z,9.30
2022-09-05T13:08:28.181Z,9.00
2022-09-05T13:10:04.717Z,9.40
2022-09-05T13:14:41.104Z,9.50
2022-09-05T13:14:50.286Z,9.40
2022-09-05T13:14:57.928Z,9.30
2022-09-05T13:14:58.637Z,9.10
2022-09-05T13:15:01.210Z,9.50
2022-09-05T13:15:28.981Z,9.10
2022-09-05T13:16:28.316Z,9.10
2022-09-05T13:17:28.269Z,9.30
2022-09-05T13:18:28.275Z,9.40
2022-09-05T13:19:28.280Z,9.30
2022-09-05T13:20:28.291Z,9.10